Savanna Army Depot, Illinois
Current Conditions -  °F | °C
As of 2:35 AM on Wednesday 26 Nov 2014 (Local Time) from KSFY Reporting Station
Clear Clear  
Wind Chill:   Ceiling: Unl
Heat Index: 11°   Visibility: 7mi
Dew Point:   Wind: 5mph
Humidity: 88%   Direction: 50°NE
Pressure: 30.14"   Gusts: NA
Location:  42.1463°N, 90.1589°W
Report Text: KSFY 260835Z AUTO 05004KT 7SM CLR M11/M13 A3014 RMK AO2 T11151131
Loading
Personal Weather Stations






























Interactive Weather Map New forecast layout! Learn more

10-Day Weather Forecast

Advertisements
Track Severe Weather on mobile